Time;durP1;ratioP1;P1;durP2;ratioP2;P2;SDS_P1;SDS_P2;PMS_P1;PMS_P2;Temp;Humidity;BMP_temperature;BMP_pressure;BME280_temperature;BME280_humidity;BME280_pressure;Samples;Min_cycle;Max_cycle;Signal;HPM_P1;HPM_P2
2022/07/17 00:01:12;;;;;;;4.88;1.80;;;20.10;52.00;;;;;;5030287;28;20033;-62
2022/07/17 00:03:38;;;;;;;3.55;2.47;;;20.10;51.90;;;;;;5030498;28;20040;-62
2022/07/17 00:06:03;;;;;;;3.75;1.73;;;20.10;51.90;;;;;;5029727;28;20025;-62
2022/07/17 00:08:31;;;;;;;6.47;2.50;;;20.10;51.90;;;;;;5028900;28;20041;-62
2022/07/17 00:10:57;;;;;;;5.55;2.40;;;20.10;51.90;;;;;;5028701;28;20025;-62
2022/07/17 00:13:22;;;;;;;5.55;2.22;;;20.10;52.00;;;;;;5027873;28;20038;-62
2022/07/17 00:15:48;;;;;;;5.38;2.35;;;20.10;51.90;;;;;;5029454;28;20037;-62
2022/07/17 00:18:13;;;;;;;7.10;2.60;;;20.10;51.90;;;;;;5029155;28;20029;-62
2022/07/17 00:20:39;;;;;;;4.38;2.38;;;20.00;51.80;;;;;;5029215;28;20064;-62
2022/07/17 00:23:04;;;;;;;7.45;2.80;;;20.00;51.80;;;;;;5027873;28;20116;-62
2022/07/17 00:25:32;;;;;;;5.35;2.40;;;20.00;51.80;;;;;;5029807;28;20403;-62
2022/07/17 00:27:57;;;;;;;7.00;2.53;;;20.00;51.80;;;;;;5029741;28;20036;-62
2022/07/17 00:30:23;;;;;;;5.65;2.38;;;20.00;51.80;;;;;;5029206;28;20034;-62
2022/07/17 00:32:48;;;;;;;4.90;2.60;;;20.00;51.80;;;;;;5029059;28;20040;-62
2022/07/17 00:35:14;;;;;;;6.75;2.67;;;20.00;51.80;;;;;;5029784;28;20505;-62
2022/07/17 00:37:45;;;;;;;6.63;2.92;;;20.00;51.70;;;;;;5029523;28;20025;-61
2022/07/17 00:40:12;;;;;;;4.97;2.95;;;20.00;51.70;;;;;;5029143;28;20072;-61
2022/07/17 00:42:41;;;;;;;5.72;2.63;;;20.00;51.70;;;;;;5046333;22;20056;-74
2022/07/17 00:45:08;;;;;;;4.50;2.15;;;20.00;51.70;;;;;;5023117;28;20445;-73
2022/07/17 00:47:34;;;;;;;6.55;2.38;;;20.00;51.70;;;;;;5031027;28;20103;-73
2022/07/17 00:49:59;;;;;;;5.43;2.38;;;19.90;51.60;;;;;;5014112;28;20067;-73
2022/07/17 00:52:24;;;;;;;4.15;2.08;;;19.90;51.70;;;;;;5031609;28;20086;-73
2022/07/17 00:54:50;;;;;;;5.72;2.10;;;19.90;51.70;;;;;;5011340;28;20040;-73
2022/07/17 00:57:16;;;;;;;6.80;2.17;;;19.90;51.70;;;;;;4994690;28;20682;-73
2022/07/17 00:59:42;;;;;;;3.30;1.75;;;19.90;51.80;;;;;;5025609;28;20029;-73
2022/07/17 01:02:09;;;;;;;5.57;1.52;;;19.90;51.70;;;;;;5030488;28;20021;-74
2022/07/17 01:04:34;;;;;;;5.35;1.80;;;19.90;51.80;;;;;;5031287;28;20040;-74
2022/07/17 01:07:00;;;;;;;2.88;1.60;;;19.90;51.80;;;;;;5014645;28;20439;-73
2022/07/17 01:09:27;;;;;;;3.05;1.40;;;19.90;51.80;;;;;;4998386;28;20455;-74
2022/07/17 01:11:53;;;;;;;3.15;1.38;;;19.90;51.70;;;;;;5014048;28;20033;-73
2022/07/17 01:14:18;;;;;;;5.18;1.40;;;19.90;51.80;;;;;;5011154;28;20046;-73
2022/07/17 01:16:44;;;;;;;2.55;1.30;;;19.90;51.80;;;;;;4994588;28;20045;-73
2022/07/17 01:19:10;;;;;;;3.08;1.67;;;19.80;51.70;;;;;;5001425;28;20025;-73
2022/07/17 01:21:40;;;;;;;5.30;1.20;;;19.80;51.70;;;;;;5014165;28;20084;-74
2022/07/17 01:24:05;;;;;;;5.13;1.20;;;19.90;51.80;;;;;;5010548;28;20497;-74
2022/07/17 01:26:31;;;;;;;3.53;1.55;;;19.90;51.80;;;;;;5010523;28;20083;-73
2022/07/17 01:28:56;;;;;;;5.38;1.27;;;19.80;51.70;;;;;;4998666;28;20029;-73
2022/07/17 01:31:22;;;;;;;4.97;1.20;;;19.90;51.80;;;;;;5013919;28;20508;-74
2022/07/17 01:33:48;;;;;;;2.55;1.00;;;19.80;51.70;;;;;;5047847;28;20041;-73
2022/07/17 01:36:13;;;;;;;4.85;1.30;;;19.80;51.70;;;;;;5013666;28;20091;-73
2022/07/17 01:38:39;;;;;;;4.15;1.25;;;19.80;51.70;;;;;;5047578;28;20365;-73
2022/07/17 01:41:04;;;;;;;4.38;1.10;;;19.80;51.70;;;;;;5030041;28;20033;-73
2022/07/17 01:43:30;;;;;;;2.75;1.50;;;19.80;51.70;;;;;;5030010;28;20124;-73
2022/07/17 01:45:55;;;;;;;2.97;1.15;;;19.80;51.60;;;;;;5030820;28;20036;-73
2022/07/17 01:48:27;;;;;;;2.85;1.30;;;19.80;51.60;;;;;;5030462;28;20025;-72
2022/07/17 01:50:53;;;;;;;2.45;1.02;;;19.80;51.60;;;;;;5014215;28;20025;-73
2022/07/17 01:53:18;;;;;;;3.47;1.52;;;19.80;51.60;;;;;;5013339;28;20041;-73
2022/07/17 01:55:44;;;;;;;2.13;1.13;;;19.80;51.60;;;;;;5029892;28;20112;-74
2022/07/17 01:58:10;;;;;;;3.03;1.45;;;19.80;51.60;;;;;;5047314;28;20108;-74
2022/07/17 02:00:35;;;;;;;1.50;0.95;;;19.80;51.60;;;;;;5047073;28;20396;-73
2022/07/17 02:03:01;;;;;;;3.17;1.33;;;19.80;51.60;;;;;;5029669;28;20112;-74
2022/07/17 02:05:26;;;;;;;2.85;1.05;;;19.80;51.70;;;;;;5029919;28;20082;-74
2022/07/17 02:07:52;;;;;;;2.53;1.17;;;19.70;51.60;;;;;;5029770;28;20108;-74
2022/07/17 02:10:18;;;;;;;3.70;1.45;;;19.70;51.50;;;;;;5029182;28;20036;-73
2022/07/17 02:12:43;;;;;;;3.15;1.20;;;19.70;51.50;;;;;;5028752;28;20033;-73
2022/07/17 02:15:09;;;;;;;2.20;1.42;;;19.70;51.50;;;;;;5046955;28;20025;-74
2022/07/17 02:20:56;;;;;;;2.05;1.27;;;19.70;51.60;;;;;;5047092;28;20040;-72
2022/07/17 02:23:22;;;;;;;3.40;1.17;;;19.70;51.50;;;;;;5003506;28;20400;-74
2022/07/17 02:25:48;;;;;;;2.22;0.98;;;19.70;51.40;;;;;;5047157;28;20037;-73
2022/07/17 02:28:13;;;;;;;5.18;1.08;;;19.70;51.40;;;;;;5046795;28;20029;-74
2022/07/17 02:30:39;;;;;;;4.15;1.05;;;19.70;51.40;;;;;;5028995;28;20540;-73
2022/07/17 02:33:04;;;;;;;4.80;1.13;;;19.60;51.40;;;;;;5028988;28;20485;-73
2022/07/17 02:35:30;;;;;;;4.15;1.27;;;19.70;51.40;;;;;;5013279;28;20037;-74
2022/07/17 02:37:55;;;;;;;2.20;1.02;;;19.60;51.40;;;;;;5028489;28;20396;-73
2022/07/17 02:40:21;;;;;;;4.40;1.20;;;19.70;51.40;;;;;;5046511;28;20040;-73
2022/07/17 02:42:46;;;;;;;2.28;1.30;;;19.70;51.50;;;;;;5028134;28;20029;-74
2022/07/17 02:45:12;;;;;;;3.47;1.25;;;19.60;51.40;;;;;;5028641;28;20068;-74
2022/07/17 02:47:37;;;;;;;2.55;1.20;;;19.60;51.40;;;;;;5029085;28;20481;-73
2022/07/17 02:50:04;;;;;;;1.08;1.00;;;19.60;51.50;;;;;;5046305;28;20038;-73
2022/07/17 02:52:30;;;;;;;4.40;2.13;;;19.60;51.50;;;;;;5029593;28;20024;-74
2022/07/17 02:54:55;;;;;;;4.00;1.08;;;19.60;51.50;;;;;;5046386;28;20029;-73
2022/07/17 02:57:21;;;;;;;2.95;1.13;;;19.60;51.50;;;;;;5012649;28;20037;-74
2022/07/17 02:59:46;;;;;;;2.08;0.98;;;19.60;51.50;;;;;;5028577;28;20036;-74
2022/07/17 03:02:12;;;;;;;3.67;1.20;;;19.60;51.50;;;;;;5029008;28;20029;-73
2022/07/17 03:04:37;;;;;;;3.20;1.20;;;19.60;51.50;;;;;;5012467;28;20025;-73
2022/07/17 03:07:03;;;;;;;2.47;0.80;;;19.60;51.50;;;;;;5025482;28;20030;-73
2022/07/17 03:09:28;;;;;;;2.22;1.02;;;19.60;51.50;;;;;;5025766;28;20029;-73
2022/07/17 03:11:54;;;;;;;4.07;1.20;;;19.60;51.50;;;;;;5028792;28;20036;-73
2022/07/17 03:14:19;;;;;;;2.50;1.33;;;19.60;51.50;;;;;;5012162;28;20033;-74
2022/07/17 03:16:45;;;;;;;2.58;0.85;;;19.50;51.40;;;;;;5009081;28;20059;-73
2022/07/17 03:19:10;;;;;;;3.10;1.17;;;19.50;51.50;;;;;;5008486;28;20037;-73
2022/07/17 03:21:36;;;;;;;3.42;1.63;;;19.50;51.50;;;;;;5003067;28;20028;-73
2022/07/17 03:24:01;;;;;;;5.93;1.83;;;19.50;51.40;;;;;;5012202;28;20041;-73
2022/07/17 03:26:27;;;;;;;4.38;1.33;;;19.50;51.50;;;;;;5045893;28;20029;-73
2022/07/17 03:28:52;;;;;;;1.67;1.40;;;19.50;51.40;;;;;;5028273;28;20025;-73
2022/07/17 03:31:18;;;;;;;3.35;1.45;;;19.50;51.50;;;;;;5028565;28;20045;-73
2022/07/17 03:33:43;;;;;;;2.88;1.10;;;19.50;51.50;;;;;;5017276;28;20033;-73
2022/07/17 03:36:09;;;;;;;3.08;1.30;;;19.50;51.50;;;;;;5043074;28;20743;-73
2022/07/17 03:38:34;;;;;;;4.40;1.23;;;19.50;51.50;;;;;;5027956;28;20507;-73
2022/07/17 03:41:00;;;;;;;2.90;1.20;;;19.50;51.50;;;;;;5012364;28;20072;-74
2022/07/17 03:43:25;;;;;;;4.10;1.20;;;19.50;51.60;;;;;;5011793;28;20036;-74
2022/07/17 03:45:51;;;;;;;5.13;1.80;;;19.50;51.50;;;;;;5011329;28;20103;-74
2022/07/17 03:48:17;;;;;;;2.75;1.20;;;19.50;51.50;;;;;;5011896;28;20178;-73
2022/07/17 03:50:42;;;;;;;4.70;1.50;;;19.50;51.50;;;;;;5028719;28;20078;-74
2022/07/17 03:53:08;;;;;;;3.53;1.23;;;19.50;51.50;;;;;;5012720;28;20039;-73
2022/07/17 03:55:33;;;;;;;3.60;1.25;;;19.50;51.50;;;;;;5013070;28;20029;-73
2022/07/17 03:57:59;;;;;;;1.73;1.05;;;19.50;51.50;;;;;;5010003;28;20033;-73
2022/07/17 04:00:24;;;;;;;3.65;1.58;;;19.50;51.50;;;;;;5008949;28;20034;-73
2022/07/17 04:02:50;;;;;;;5.63;1.75;;;19.50;51.50;;;;;;5024480;28;20029;-73
2022/07/17 04:05:15;;;;;;;2.92;1.27;;;19.50;51.50;;;;;;5019337;28;20044;-72
2022/07/17 04:07:41;;;;;;;3.63;1.30;;;19.50;51.50;;;;;;5017996;28;20025;-73
2022/07/17 04:10:08;;;;;;;2.63;1.20;;;19.50;51.50;;;;;;5028025;28;20053;-74
2022/07/17 04:12:33;;;;;;;4.30;1.20;;;19.50;51.50;;;;;;5045842;28;20038;-73
2022/07/17 04:14:59;;;;;;;2.83;1.40;;;19.50;51.50;;;;;;5028587;28;20403;-73
2022/07/17 04:17:25;;;;;;;3.15;1.30;;;19.50;51.50;;;;;;5027765;28;20108;-73
2022/07/17 04:19:51;;;;;;;4.65;1.30;;;19.50;51.60;;;;;;5011402;28;20314;-73
2022/07/17 04:22:17;;;;;;;4.75;1.05;;;19.50;51.60;;;;;;5007938;28;20447;-73
2022/07/17 04:24:42;;;;;;;7.03;1.00;;;19.50;51.70;;;;;;5008375;28;20025;-73
2022/07/17 04:27:08;;;;;;;2.42;0.80;;;19.50;51.70;;;;;;4997854;28;20589;-73
2022/07/17 04:29:33;;;;;;;3.60;1.38;;;19.50;51.70;;;;;;4994411;28;20033;-73
2022/07/17 04:31:59;;;;;;;4.30;1.30;;;19.50;51.80;;;;;;4991911;28;20029;-73
2022/07/17 04:34:25;;;;;;;4.70;1.30;;;19.50;51.90;;;;;;4991511;28;20492;-73
2022/07/17 04:36:50;;;;;;;1.63;0.95;;;19.50;51.90;;;;;;4995207;28;20120;-72
2022/07/17 04:39:16;;;;;;;4.45;1.23;;;19.50;52.00;;;;;;5030570;28;20515;-72
2022/07/17 04:41:41;;;;;;;2.33;1.05;;;19.50;52.10;;;;;;5030807;28;20043;-73
2022/07/17 04:44:07;;;;;;;1.85;0.90;;;19.50;52.10;;;;;;5030525;28;20040;-73
2022/07/17 04:49:06;;;;;;;2.67;0.90;;;19.50;52.30;;;;;;5036107;28;20041;-47
2022/07/17 04:51:32;;;;;;;2.88;1.20;;;19.50;52.30;;;;;;5047087;28;20033;-49
2022/07/17 04:53:57;;;;;;;2.33;1.05;;;19.50;52.40;;;;;;5045547;28;20048;-48
2022/07/17 04:56:23;;;;;;;2.33;1.00;;;19.50;52.50;;;;;;5046987;28;20111;-47
2022/07/17 04:58:48;;;;;;;1.00;0.65;;;19.50;52.50;;;;;;5028488;28;20029;-49
2022/07/17 05:01:14;;;;;;;2.90;1.13;;;19.50;52.60;;;;;;5046899;28;20021;-48
2022/07/17 05:03:39;;;;;;;3.80;1.13;;;19.50;52.60;;;;;;5029402;28;20029;-49
2022/07/17 05:06:06;;;;;;;2.92;1.08;;;19.50;52.70;;;;;;5046751;28;20053;-48
2022/07/17 05:08:31;;;;;;;1.35;0.98;;;19.50;52.80;;;;;;5034890;28;20072;-51
2022/07/17 05:10:57;;;;;;;2.30;1.00;;;19.50;52.80;;;;;;5026128;28;20046;-48
2022/07/17 05:13:22;;;;;;;3.10;0.93;;;19.50;52.90;;;;;;5036916;28;20087;-50
2022/07/17 05:15:49;;;;;;;3.97;1.25;;;19.50;52.90;;;;;;5028717;28;20029;-49
2022/07/17 05:18:15;;;;;;;2.28;1.27;;;19.50;53.10;;;;;;5038207;28;20616;-49
2022/07/17 05:20:40;;;;;;;2.85;1.00;;;19.50;53.20;;;;;;5025862;28;20026;-48
2022/07/17 05:23:06;;;;;;;2.83;1.00;;;19.50;53.20;;;;;;5015178;28;20100;-47
2022/07/17 05:25:31;;;;;;;5.03;1.02;;;19.50;53.40;;;;;;5046709;28;20064;-49
2022/07/17 05:27:57;;;;;;;4.72;1.10;;;19.50;54.10;;;;;;5046560;28;20025;-49
2022/07/17 05:30:22;;;;;;;2.92;1.10;;;19.60;53.50;;;;;;5045536;28;21140;-52
2022/07/17 05:32:48;;;;;;;2.33;1.38;;;19.60;53.60;;;;;;5046505;28;20546;-49
2022/07/17 05:35:13;;;;;;;3.97;1.33;;;19.50;53.50;;;;;;5046084;28;20029;-46
2022/07/17 05:37:39;;;;;;;3.55;1.25;;;19.60;53.50;;;;;;5046059;28;20021;-49
2022/07/17 05:40:05;;;;;;;3.17;1.40;;;19.60;53.40;;;;;;5045429;28;20025;-48
2022/07/17 05:42:30;;;;;;;4.45;1.30;;;19.60;53.40;;;;;;5046288;28;20149;-47
2022/07/17 05:44:56;;;;;;;3.50;1.15;;;19.60;53.40;;;;;;5045926;28;20116;-48
2022/07/17 05:47:21;;;;;;;3.88;1.10;;;19.60;54.10;;;;;;5045511;28;20041;-47
2022/07/17 05:49:47;;;;;;;6.28;1.42;;;19.50;53.40;;;;;;5045027;28;20025;-48
2022/07/17 05:52:12;;;;;;;1.88;1.00;;;19.50;53.40;;;;;;5045916;28;20021;-48
2022/07/17 05:54:38;;;;;;;5.40;1.20;;;19.50;53.30;;;;;;5027923;28;20554;-47
2022/07/17 05:57:03;;;;;;;4.10;1.40;;;19.50;53.30;;;;;;5045993;28;20039;-44
2022/07/17 05:59:29;;;;;;;2.00;0.98;;;19.50;53.30;;;;;;5032431;28;20033;-47
2022/07/17 06:01:54;;;;;;;2.75;1.23;;;19.50;53.30;;;;;;5008148;28;20396;-47
2022/07/17 06:04:20;;;;;;;5.00;0.93;;;19.50;53.30;;;;;;5036889;28;20037;-49
2022/07/17 06:06:45;;;;;;;2.22;1.15;;;19.50;53.30;;;;;;5045709;28;20120;-48
2022/07/17 06:09:11;;;;;;;2.25;0.88;;;19.50;53.30;;;;;;5035499;28;20122;-48
2022/07/17 06:11:36;;;;;;;4.40;1.88;;;19.50;53.20;;;;;;5008104;28;20030;-47
2022/07/17 06:14:02;;;;;;;2.50;1.15;;;19.50;53.30;;;;;;5033542;28;20021;-49
2022/07/17 06:16:27;;;;;;;5.75;1.08;;;19.50;53.30;;;;;;5045835;28;20029;-47
2022/07/17 06:18:53;;;;;;;4.25;1.25;;;19.50;53.30;;;;;;5039414;28;20040;-47
2022/07/17 06:21:18;;;;;;;2.67;1.25;;;19.50;53.40;;;;;;5025619;28;20053;-48
2022/07/17 06:23:44;;;;;;;2.78;1.17;;;19.50;53.50;;;;;;5028748;28;20029;-48
2022/07/17 06:26:09;;;;;;;2.53;1.10;;;19.50;53.50;;;;;;5045541;28;20108;-48
2022/07/17 06:28:35;;;;;;;2.55;1.20;;;19.50;53.50;;;;;;5043304;28;20035;-50
2022/07/17 06:31:00;;;;;;;4.30;1.27;;;19.50;53.60;;;;;;5025685;28;20496;-48
2022/07/17 06:33:26;;;;;;;6.30;1.65;;;19.50;53.60;;;;;;5025205;28;20037;-49
2022/07/17 06:35:52;;;;;;;4.35;0.98;;;19.50;53.60;;;;;;5044632;28;20040;-50
2022/07/17 06:38:17;;;;;;;3.30;1.60;;;19.50;53.70;;;;;;5044843;28;20555;-49
2022/07/17 06:40:43;;;;;;;2.97;1.30;;;19.50;53.70;;;;;;5026764;28;20041;-51
2022/07/17 06:43:08;;;;;;;5.22;1.35;;;19.50;53.60;;;;;;5025457;28;20156;-48
2022/07/17 06:45:34;;;;;;;3.72;0.77;;;19.50;53.60;;;;;;5022737;28;20086;-45
2022/07/17 06:47:59;;;;;;;4.22;1.40;;;19.40;53.60;;;;;;5022504;23;20046;-51
2022/07/17 06:50:25;;;;;;;4.82;1.48;;;19.50;53.70;;;;;;5024007;28;20029;-53
2022/07/17 06:52:50;;;;;;;2.55;1.02;;;19.50;53.80;;;;;;5025079;28;20510;-51
2022/07/17 06:55:16;;;;;;;2.70;0.80;;;19.50;53.80;;;;;;5024644;28;20033;-47
2022/07/17 06:57:41;;;;;;;4.18;1.23;;;19.40;53.70;;;;;;5025249;28;20033;-48
2022/07/17 07:00:08;;;;;;;3.30;0.80;;;19.40;53.70;;;;;;5023623;28;20025;-51
2022/07/17 07:02:34;;;;;;;2.83;1.30;;;19.50;53.60;;;;;;5024464;28;20076;-42
2022/07/17 07:05:00;;;;;;;2.85;1.20;;;19.50;53.70;;;;;;5025262;28;20053;-47
2022/07/17 07:07:25;;;;;;;3.72;1.30;;;19.40;53.80;;;;;;5025130;28;20029;-47
2022/07/17 07:09:51;;;;;;;3.20;1.10;;;19.40;53.70;;;;;;5023865;28;20040;-47
2022/07/17 07:12:16;;;;;;;5.13;1.00;;;19.40;53.70;;;;;;5024614;28;20025;-51
2022/07/17 07:14:41;;;;;;;3.45;1.20;;;19.50;53.70;;;;;;5024536;28;20056;-48
2022/07/17 07:17:07;;;;;;;3.88;1.13;;;19.40;53.70;;;;;;5024086;28;20488;-47
2022/07/17 07:19:33;;;;;;;3.05;1.02;;;19.40;53.60;;;;;;5024212;28;20116;-47
2022/07/17 07:21:58;;;;;;;2.58;0.90;;;19.50;53.70;;;;;;5024290;28;20492;-46
2022/07/17 07:24:24;;;;;;;3.20;1.00;;;19.40;54.00;;;;;;5007019;28;20037;-48
2022/07/17 07:26:49;;;;;;;4.75;1.08;;;19.40;54.00;;;;;;5024102;28;20117;-47
2022/07/17 07:29:15;;;;;;;4.50;1.08;;;19.40;53.90;;;;;;5023628;28;20420;-47
2022/07/17 07:31:40;;;;;;;3.17;0.73;;;19.40;53.90;;;;;;5023797;28;20037;-48
2022/07/17 07:34:06;;;;;;;7.38;2.20;;;19.40;54.00;;;;;;5024540;28;20038;-47
2022/07/17 07:36:31;;;;;;;3.47;0.95;;;19.40;54.00;;;;;;5024391;28;20077;-47
2022/07/17 07:38:57;;;;;;;7.28;1.27;;;19.50;54.00;;;;;;5023954;28;20542;-47
2022/07/17 07:41:22;;;;;;;6.38;1.40;;;19.40;54.00;;;;;;5006395;28;20036;-47
2022/07/17 07:43:48;;;;;;;3.70;1.10;;;19.40;53.90;;;;;;5024391;28;20037;-48
2022/07/17 07:46:13;;;;;;;3.08;1.00;;;19.50;54.00;;;;;;5022860;28;20084;-48
2022/07/17 07:48:39;;;;;;;3.35;1.40;;;19.50;54.00;;;;;;5024070;28;20033;-48
2022/07/17 07:51:04;;;;;;;4.38;1.00;;;19.50;54.00;;;;;;5023825;28;20263;-47
2022/07/17 07:53:30;;;;;;;2.92;1.13;;;19.40;54.10;;;;;;5024813;28;20025;-48
2022/07/17 07:55:55;;;;;;;2.85;1.10;;;19.40;54.30;;;;;;5023786;28;20040;-50
2022/07/17 07:58:21;;;;;;;2.88;1.00;;;19.40;54.40;;;;;;5024163;28;20057;-48
2022/07/17 08:00:46;;;;;;;3.00;1.42;;;19.40;54.30;;;;;;5005836;28;20051;-50
2022/07/17 08:03:13;;;;;;;3.25;0.98;;;19.40;54.30;;;;;;5024331;28;20026;-48
2022/07/17 08:05:38;;;;;;;2.55;1.00;;;19.40;54.30;;;;;;5024278;28;20041;-49
2022/07/17 08:08:04;;;;;;;2.35;1.27;;;19.40;54.10;;;;;;5007172;28;20096;-47
2022/07/17 08:10:29;;;;;;;2.63;0.90;;;19.40;54.10;;;;;;5024077;28;22734;-47
2022/07/17 08:12:55;;;;;;;3.28;0.75;;;19.40;54.10;;;;;;5028133;28;20029;-48
2022/07/17 08:15:21;;;;;;;3.85;1.20;;;19.50;54.00;;;;;;5009867;28;20100;-48
2022/07/17 08:17:47;;;;;;;2.90;1.17;;;19.40;54.00;;;;;;5028412;28;20510;-49
2022/07/17 08:20:13;;;;;;;5.38;1.00;;;19.50;54.20;;;;;;5027508;28;20038;-50
2022/07/17 08:22:38;;;;;;;4.57;1.08;;;19.50;54.20;;;;;;5028117;28;20548;-50
2022/07/17 08:25:04;;;;;;;3.55;1.33;;;19.50;54.00;;;;;;5028833;28;20026;-48
2022/07/17 08:27:36;;;;;;;2.25;0.88;;;19.50;54.10;;;;;;5027206;28;21080;-53
2022/07/17 08:30:05;;;;;;;3.03;0.88;;;19.40;54.10;;;;;;5025741;28;20042;-48
2022/07/17 08:32:30;;;;;;;2.10;0.90;;;19.50;54.20;;;;;;4984129;28;20459;-49
2022/07/17 08:34:56;;;;;;;4.07;1.55;;;19.40;54.30;;;;;;5027345;28;20104;-48
2022/07/17 08:37:22;;;;;;;2.85;1.00;;;19.40;54.50;;;;;;5027810;28;20124;-49
2022/07/17 08:39:47;;;;;;;3.88;1.15;;;19.40;54.20;;;;;;5009473;28;20036;-47
2022/07/17 08:42:16;;;;;;;3.40;1.17;;;19.40;54.00;;;;;;5027190;28;20022;-49
2022/07/17 08:44:42;;;;;;;2.92;0.90;;;19.40;54.00;;;;;;5027221;28;20041;-48
2022/07/17 08:47:08;;;;;;;2.08;0.95;;;19.50;54.10;;;;;;5027116;28;20043;-48
2022/07/17 08:49:33;;;;;;;3.28;1.25;;;19.40;54.00;;;;;;5009571;28;20025;-48
2022/07/17 08:51:59;;;;;;;3.40;1.15;;;19.40;54.00;;;;;;4999697;28;20026;-47
2022/07/17 08:54:24;;;;;;;4.20;0.80;;;19.40;53.40;;;;;;5026460;28;20045;-54
2022/07/17 08:56:50;;;;;;;1.42;1.00;;;19.40;54.10;;;;;;5027196;28;20033;-51
2022/07/17 08:59:15;;;;;;;2.45;1.00;;;19.40;53.80;;;;;;5025293;28;20025;-46
2022/07/17 09:01:41;;;;;;;3.15;0.82;;;19.40;53.80;;;;;;5027293;28;20404;-47
2022/07/17 09:04:07;;;;;;;3.42;1.30;;;19.40;53.70;;;;;;5027588;28;20037;-50
2022/07/17 09:06:33;;;;;;;5.85;1.42;;;19.40;53.80;;;;;;5025519;28;20232;-48
2022/07/17 09:09:07;;;;;;;2.85;1.30;;;19.40;53.90;;;;;;5027013;28;20033;-49
2022/07/17 09:11:47;;;;;;;3.30;1.30;;;19.40;53.60;;;;;;5025731;28;20025;-49
2022/07/17 09:14:12;;;;;;;3.70;1.23;;;19.40;53.70;;;;;;5025744;28;20056;-48
2022/07/17 09:16:52;;;;;;;2.47;1.17;;;19.40;53.70;;;;;;5025747;28;20057;-47
2022/07/17 09:19:31;;;;;;;2.22;0.95;;;19.50;53.70;;;;;;5026906;28;20056;-47
2022/07/17 09:22:08;;;;;;;4.40;1.35;;;19.40;53.60;;;;;;5026217;28;20033;-47
2022/07/17 09:24:40;;;;;;;2.28;1.20;;;19.40;51.70;;;;;;5027571;28;20104;-50
2022/07/17 09:27:05;;;;;;;3.67;1.48;;;19.40;51.50;;;;;;5017279;28;20492;-48
2022/07/17 09:29:30;;;;;;;1.27;1.17;;;19.40;52.90;;;;;;5026911;28;20111;-50
2022/07/17 09:31:56;;;;;;;1.92;1.10;;;19.40;53.00;;;;;;5025726;28;20033;-47
2022/07/17 09:34:23;;;;;;;1.92;1.00;;;19.40;53.40;;;;;;5027122;28;20029;-46
2022/07/17 09:36:59;;;;;;;2.70;1.10;;;19.40;53.30;;;;;;5026481;28;20078;-49
2022/07/17 09:39:34;;;;;;;1.48;1.00;;;19.50;53.30;;;;;;5026279;28;20061;-47
2022/07/17 09:42:00;;;;;;;;;;;19.50;53.20;;;;;;5026976;28;20487;-48
2022/07/17 09:44:25;;;;;;;;;;;19.50;53.10;;;;;;5027169;28;19916;-48
2022/07/17 09:46:51;;;;;;;4.07;1.40;;;19.50;53.20;;;;;;5026070;28;20540;-48
2022/07/17 09:49:16;;;;;;;3.70;1.10;;;19.40;51.10;;;;;;5024204;28;20021;-48
2022/07/17 09:51:42;;;;;;;3.83;1.05;;;19.40;53.00;;;;;;5024947;28;20513;-47
2022/07/17 09:54:10;;;;;;;1.50;0.82;;;19.40;52.80;;;;;;5026153;28;20037;-49
2022/07/17 09:56:36;;;;;;;2.50;0.90;;;19.40;52.90;;;;;;5026180;28;20512;-48
2022/07/17 09:59:03;;;;;;;3.38;1.27;;;19.40;52.90;;;;;;5026036;28;20509;-50
2022/07/17 10:01:29;;;;;;;3.47;1.17;;;19.50;52.80;;;;;;5026023;28;20021;-49
2022/07/17 10:03:54;;;;;;;2.13;1.15;;;19.50;52.80;;;;;;5024523;28;20113;-46
2022/07/17 10:06:24;;;;;;;2.80;1.17;;;19.50;53.00;;;;;;5025432;28;20133;-47
2022/07/17 10:08:51;;;;;;;2.78;1.20;;;19.50;53.20;;;;;;5025732;28;20037;-46
2022/07/17 10:11:16;;;;;;;2.95;0.95;;;19.50;53.10;;;;;;5025744;28;20459;-46
2022/07/17 10:13:44;;;;;;;2.40;0.98;;;19.50;54.20;;;;;;5024216;28;20029;-46
2022/07/17 10:16:10;;;;;;;2.92;1.35;;;19.50;53.70;;;;;;5024264;28;20057;-48
2022/07/17 10:18:43;;;;;;;2.83;1.13;;;19.50;53.10;;;;;;5023804;28;20060;-47
2022/07/17 10:21:16;;;;;;;2.30;0.95;;;19.40;53.40;;;;;;5025701;28;20120;-48
2022/07/17 10:23:43;;;;;;;1.30;0.90;;;19.50;53.70;;;;;;5025532;28;20542;-51
2022/07/17 10:26:09;;;;;;;1.92;0.80;;;19.50;53.50;;;;;;5024473;28;20030;-47
2022/07/17 10:28:46;;;;;;;2.10;0.88;;;19.50;53.30;;;;;;5025281;28;20114;-51
2022/07/17 10:31:27;;;;;;;1.98;1.00;;;19.50;53.30;;;;;;5023979;28;20033;-47
2022/07/17 10:33:59;;;;;;;3.15;1.58;;;19.50;53.30;;;;;;5023311;28;20040;-46
2022/07/17 10:36:40;;;;;;;2.05;0.80;;;19.50;53.40;;;;;;5024160;28;20041;-47
2022/07/17 10:39:20;;;;;;;2.47;1.08;;;19.50;53.30;;;;;;5020620;28;20033;-47
2022/07/17 10:41:59;;;;;;;3.13;1.20;;;19.50;54.00;;;;;;5024931;28;20500;-47
2022/07/17 10:44:28;;;;;;;1.38;0.77;;;19.50;53.30;;;;;;5007416;28;20041;-47
2022/07/17 10:46:54;;;;;;;3.00;1.20;;;19.50;53.30;;;;;;5024673;28;20086;-47
2022/07/17 10:49:20;;;;;;;3.20;0.90;;;19.50;53.30;;;;;;5024324;28;20037;-46
2022/07/17 10:51:48;;;;;;;2.97;0.90;;;19.50;53.10;;;;;;5024549;28;20036;-47
2022/07/17 10:54:14;;;;;;;1.50;0.63;;;19.60;53.10;;;;;;5024955;28;20025;-47
2022/07/17 10:56:45;;;;;;;2.63;1.05;;;19.60;53.30;;;;;;5024665;28;20466;-53
2022/07/17 10:59:11;;;;;;;2.42;1.00;;;19.50;53.50;;;;;;5024497;28;20092;-52
2022/07/17 11:01:36;;;;;;;1.38;0.80;;;19.50;53.50;;;;;;5025043;28;20018;-47
2022/07/17 11:04:02;;;;;;;3.25;1.08;;;19.50;53.30;;;;;;5025628;28;20106;-47
2022/07/17 11:06:30;;;;;;;3.17;1.08;;;19.50;53.10;;;;;;5024773;28;20084;-48
2022/07/17 11:09:08;;;;;;;3.55;1.38;;;19.60;53.00;;;;;;5024478;28;20036;-46
2022/07/17 11:11:43;;;;;;;2.00;0.90;;;19.60;52.80;;;;;;5007683;28;20028;-46
2022/07/17 11:14:09;;;;;;;3.83;1.23;;;19.60;52.90;;;;;;5024527;28;20783;-47
2022/07/17 11:16:34;;;;;;;1.98;0.88;;;19.60;52.90;;;;;;5025218;28;20025;-48
2022/07/17 11:19:00;;;;;;;2.63;0.70;;;19.60;53.00;;;;;;5024317;28;20026;-48
2022/07/17 11:21:25;;;;;;;2.22;0.90;;;19.60;52.90;;;;;;5024471;28;20037;-54
2022/07/17 11:23:52;;;;;;;2.80;0.80;;;19.60;52.90;;;;;;5024500;28;20030;-53
2022/07/17 11:26:18;;;;;;;1.52;0.75;;;19.60;52.80;;;;;;5024556;28;20056;-51
2022/07/17 11:28:44;;;;;;;2.08;0.95;;;19.60;52.90;;;;;;5006108;28;20053;-50
2022/07/17 11:31:35;;;;;;;3.30;1.80;;;19.60;53.10;;;;;;5006708;28;20041;-51
2022/07/17 11:34:02;;;;;;;1.85;0.95;;;19.60;52.70;;;;;;5020474;28;20045;-50
2022/07/17 11:36:32;;;;;;;2.22;1.02;;;19.60;53.00;;;;;;5024085;28;20032;-52
2022/07/17 11:39:11;;;;;;;1.33;0.90;;;19.60;53.10;;;;;;5023382;28;20030;-53
2022/07/17 11:41:40;;;;;;;3.20;0.90;;;19.60;53.10;;;;;;5023598;28;20064;-48
2022/07/17 11:44:09;;;;;;;3.17;0.88;;;19.60;52.90;;;;;;5024351;28;20037;-47
2022/07/17 11:46:35;;;;;;;3.00;1.10;;;19.60;53.00;;;;;;5009570;28;20041;-51
2022/07/17 11:49:00;;;;;;;2.30;0.90;;;19.60;53.10;;;;;;5027611;28;20037;-48
2022/07/17 11:51:43;;;;;;;2.17;0.68;;;19.60;53.10;;;;;;5027431;28;20037;-46
2022/07/17 11:54:13;;;;;;;1.95;0.85;;;19.60;53.10;;;;;;4993936;28;20117;-47
2022/07/17 11:56:39;;;;;;;2.80;0.98;;;19.60;53.60;;;;;;5010145;28;20033;-47
2022/07/17 11:59:05;;;;;;;1.38;0.88;;;19.60;52.90;;;;;;5027638;28;20034;-47
2022/07/17 12:01:39;;;;;;;1.45;0.52;;;19.70;52.90;;;;;;5028014;28;20034;-51
2022/07/17 12:04:06;;;;;;;2.58;0.90;;;19.60;52.90;;;;;;5027780;28;20029;-46
2022/07/17 12:06:31;;;;;;;2.45;0.80;;;19.60;52.80;;;;;;4983781;28;20689;-48
2022/07/17 12:08:57;;;;;;;2.92;0.95;;;19.70;52.90;;;;;;5027148;28;20409;-48
2022/07/17 12:11:22;;;;;;;2.30;1.00;;;19.70;52.90;;;;;;5027789;28;20064;-48
2022/07/17 12:13:48;;;;;;;1.45;0.90;;;19.70;52.50;;;;;;5010207;28;20030;-53
2022/07/17 12:16:28;;;;;;;2.50;1.05;;;19.70;52.90;;;;;;5027654;28;20099;-50
2022/07/17 12:19:08;;;;;;;1.17;0.60;;;19.70;52.90;;;;;;5027238;28;20029;-47
2022/07/17 12:21:45;;;;;;;4.30;1.00;;;19.70;53.00;;;;;;5027786;28;20108;-47
2022/07/17 12:24:17;;;;;;;1.40;0.60;;;19.60;53.00;;;;;;4994725;28;20729;-47
2022/07/17 12:26:42;;;;;;;2.10;0.70;;;19.70;53.00;;;;;;5009969;28;20117;-47
2022/07/17 12:29:08;;;;;;;3.30;0.90;;;19.70;52.90;;;;;;5026834;28;20116;-48
2022/07/17 12:31:33;;;;;;;2.05;0.80;;;19.70;52.80;;;;;;5027490;28;20699;-47
2022/07/17 12:33:59;;;;;;;1.77;0.77;;;19.70;52.70;;;;;;5027571;28;20034;-47
2022/07/17 12:36:24;;;;;;;2.05;0.70;;;19.80;52.30;;;;;;5027371;28;20025;-47
2022/07/17 12:38:50;;;;;;;3.25;0.70;;;19.80;52.20;;;;;;5026764;28;20179;-47
2022/07/17 12:41:15;;;;;;;2.25;1.05;;;19.80;51.70;;;;;;5027203;28;20032;-47
2022/07/17 12:43:41;;;;;;;1.73;0.90;;;19.80;51.00;;;;;;5027520;28;20092;-47
2022/07/17 12:46:07;;;;;;;4.07;1.10;;;19.80;51.50;;;;;;5009336;28;20392;-46
2022/07/17 12:48:32;;;;;;;2.45;1.10;;;19.80;51.20;;;;;;5076323;22;20043;-47
2022/07/17 12:50:58;;;;;;;2.45;0.93;;;19.80;51.40;;;;;;5059169;28;20028;-49